Time;durP1;ratioP1;P1;durP2;ratioP2;P2;SDS_P1;SDS_P2;PMS_P1;PMS_P2;Temp;Humidity;BMP_temperature;BMP_pressure;BME280_temperature;BME280_humidity;BME280_pressure;Samples;Min_cycle;Max_cycle;Signal;HPM_P1;HPM_P2
2022/09/23 00:00:18;;;;;;;3.33;1.63;;;;;;;9.55;94.06;101887.81;4967560;28;20333;-48
2022/09/23 00:02:47;;;;;;;4.72;1.40;;;;;;;9.54;93.81;101876.22;4961142;28;20745;-48
2022/09/23 00:05:13;;;;;;;3.03;1.67;;;;;;;9.48;93.57;101874.53;4963588;28;20642;-47
2022/09/23 00:07:39;;;;;;;1.50;1.40;;;;;;;9.52;93.44;101878.03;4967939;28;20178;-49
2022/09/23 00:10:05;;;;;;;2.00;1.40;;;;;;;9.51;93.47;101864.69;4968827;28;20321;-47
2022/09/23 00:12:31;;;;;;;2.00;1.63;;;;;;;9.48;93.36;101853.13;4964252;28;20183;-48
2022/09/23 00:14:57;;;;;;;1.85;1.52;;;;;;;9.49;93.23;101862.94;4966876;28;20184;-52
2022/09/23 00:17:22;;;;;;;2.15;1.48;;;;;;;9.43;93.26;101849.66;4956350;28;20191;-49
2022/09/23 00:19:48;;;;;;;2.08;1.40;;;;;;;9.46;93.20;101857.63;4965321;28;20341;-52
2022/09/23 00:22:15;;;;;;;2.40;1.40;;;;;;;9.42;93.48;101853.25;4963845;28;20186;-53
2022/09/23 00:24:40;;;;;;;2.50;1.70;;;;;;;9.31;93.60;101848.97;4966180;28;20190;-52
2022/09/23 00:27:05;;;;;;;1.52;1.42;;;;;;;9.34;93.56;101844.47;4966069;28;20236;-49
2022/09/23 00:29:31;;;;;;;1.88;1.60;;;;;;;9.35;93.48;101851.56;4961382;28;20210;-49
2022/09/23 00:31:57;;;;;;;1.88;1.33;;;;;;;9.26;93.65;101852.59;4964086;28;20201;-48
2022/09/23 00:34:22;;;;;;;3.22;1.50;;;;;;;9.21;93.92;101848.25;4966147;28;20189;-53
2022/09/23 00:36:47;;;;;;;2.83;1.40;;;;;;;9.22;94.12;101850.00;4961657;28;20265;-47
2022/09/23 00:39:13;;;;;;;1.70;1.30;;;;;;;9.16;93.89;101839.41;4962264;28;20308;-48
2022/09/23 00:41:39;;;;;;;2.55;1.50;;;;;;;9.12;94.25;101837.69;4968719;28;20198;-52
2022/09/23 00:44:42;;;;;;;1.65;1.25;;;;;;;9.04;94.35;101835.16;4965135;28;20633;-47
2022/09/23 00:47:35;;;;;;;2.75;1.40;;;;;;;9.09;94.42;101833.28;4962312;28;20638;-49
2022/09/23 00:50:26;;;;;;;1.30;1.20;;;;;;;9.00;94.15;101831.63;4963404;28;20221;-51
2022/09/23 00:52:55;;;;;;;1.30;1.20;;;;;;;9.10;94.23;101828.84;4963164;28;20209;-51
2022/09/23 00:55:32;;;;;;;2.88;1.27;;;;;;;9.05;93.98;101834.22;4967481;28;20204;-49
2022/09/23 00:58:01;;;;;;;2.72;1.38;;;;;;;9.02;93.72;101832.50;4966343;28;20686;-49
2022/09/23 01:00:28;;;;;;;1.67;1.30;;;;;;;8.94;94.10;101829.06;4963260;28;20305;-49
2022/09/23 01:02:54;;;;;;;1.17;1.13;;;;;;;8.95;93.87;101820.16;4965584;28;20221;-51
2022/09/23 01:05:19;;;;;;;3.45;1.30;;;;;;;8.92;93.81;101822.88;4963974;28;20217;-49
2022/09/23 01:07:45;;;;;;;2.65;1.35;;;;;;;8.96;93.46;101821.03;4961552;28;20598;-50
2022/09/23 01:10:13;;;;;;;2.35;1.35;;;;;;;8.94;93.23;101809.47;4963723;28;20705;-50
2022/09/23 01:12:55;;;;;;;1.50;1.35;;;;;;;8.93;93.30;101819.28;4967438;28;20264;-49
2022/09/23 01:15:52;;;;;;;1.40;1.30;;;;;;;8.97;93.16;101815.66;4958444;28;20214;-49
2022/09/23 01:18:38;;;;;;;1.30;1.20;;;;;;;8.90;92.94;101810.41;4967140;28;20239;-49
2022/09/23 01:21:19;;;;;;;1.55;1.10;;;;;;;8.87;92.95;101814.03;4969198;28;20261;-51
2022/09/23 01:24:06;;;;;;;1.45;1.33;;;;;;;8.84;92.94;101812.28;4966713;28;20180;-49
2022/09/23 01:26:48;;;;;;;1.30;1.20;;;;;;;8.86;93.05;101804.25;4964517;28;20872;-51
2022/09/23 01:29:45;;;;;;;1.23;1.13;;;;;;;8.91;92.72;101802.38;4961284;28;20225;-48
2022/09/23 01:32:25;;;;;;;2.88;1.27;;;;;;;8.84;92.50;101800.72;4964707;28;20212;-48
2022/09/23 01:35:06;;;;;;;4.60;1.38;;;;;;;8.82;92.33;101794.53;4970240;28;20201;-49
2022/09/23 01:38:21;;;;;;;1.88;1.10;;;;;;;8.83;91.98;101789.16;4968359;28;20698;-49
2022/09/23 01:41:11;;;;;;;1.15;1.08;;;;;;;8.83;91.71;101788.25;4904215;29;21235;-49
2022/09/23 01:43:48;;;;;;;1.55;1.05;;;;;;;8.89;91.62;101784.63;4899570;29;20195;-48
2022/09/23 01:46:26;;;;;;;2.53;1.30;;;;;;;8.83;91.96;101788.25;4946001;28;21173;-50
2022/09/23 01:49:06;;;;;;;2.22;0.90;;;;;;;8.84;91.60;101782.03;4965742;28;20727;-48
2022/09/23 01:51:38;;;;;;;1.85;1.13;;;;;;;8.86;91.46;101782.88;4962912;28;20298;-48
2022/09/23 01:54:11;;;;;;;1.70;1.00;;;;;;;8.86;91.48;101786.44;4959218;28;20193;-48
2022/09/23 01:56:48;;;;;;;2.20;1.15;;;;;;;8.83;91.39;101782.91;4965313;28;20215;-48
2022/09/23 01:59:25;;;;;;;1.95;1.25;;;;;;;8.91;91.21;101781.00;4969654;28;20368;-48
2022/09/23 02:02:04;;;;;;;1.65;1.00;;;;;;;8.91;90.83;101772.13;4969416;28;20186;-48
2022/09/23 02:04:53;;;;;;;1.08;1.00;;;;;;;8.90;90.69;101779.25;4966028;28;20233;-50
2022/09/23 02:07:19;;;;;;;2.40;1.20;;;;;;;8.86;90.61;101770.38;4963442;28;20174;-50
2022/09/23 02:09:52;;;;;;;2.05;0.98;;;;;;;8.87;90.37;101768.59;4966146;28;20217;-49
2022/09/23 02:12:23;;;;;;;1.40;1.15;;;;;;;8.84;90.62;101764.19;4965175;28;20248;-49
2022/09/23 02:15:03;;;;;;;1.67;0.95;;;;;;;8.79;90.64;101771.41;4967316;28;20190;-49
2022/09/23 02:18:00;;;;;;;1.00;1.00;;;;;;;8.79;90.56;101757.13;4962823;28;20264;-49
2022/09/23 02:20:33;;;;;;;1.30;1.00;;;;;;;8.81;90.15;101761.56;4962557;28;20225;-48
2022/09/23 02:23:02;;;;;;;1.30;0.88;;;;;;;8.79;90.14;101762.47;4963753;28;20266;-48
2022/09/23 02:25:38;;;;;;;0.82;0.82;;;;;;;8.82;90.01;101755.31;4964014;28;20186;-49
2022/09/23 02:28:23;;;;;;;2.72;0.90;;;;;;;8.83;89.81;101749.06;4964364;28;20189;-49
2022/09/23 02:30:57;;;;;;;0.70;0.70;;;;;;;8.82;89.63;101752.63;4962403;28;20210;-50
2022/09/23 02:33:32;;;;;;;1.35;0.90;;;;;;;8.81;89.79;101740.19;4964475;28;20207;-50
2022/09/23 02:36:28;;;;;;;1.50;1.00;;;;;;;8.76;89.76;101752.72;4960453;28;20205;-50
2022/09/23 02:38:56;;;;;;;1.85;1.08;;;;;;;8.72;90.08;101736.78;4966288;28;20245;-49
2022/09/23 02:41:31;;;;;;;2.90;1.20;;;;;;;8.69;90.04;101737.72;4965472;28;20236;-49
2022/09/23 02:44:07;;;;;;;4.22;1.30;;;;;;;8.76;89.67;101735.81;4962387;28;20186;-48
2022/09/23 02:46:33;;;;;;;1.30;0.77;;;;;;;8.75;89.49;101736.75;4964500;28;20190;-50
2022/09/23 02:49:15;;;;;;;0.82;0.82;;;;;;;8.75;89.84;101731.41;4968432;28;20256;-49
2022/09/23 02:51:41;;;;;;;1.00;1.00;;;;;;;8.77;89.38;101737.59;4967599;28;20193;-49
2022/09/23 02:54:13;;;;;;;1.08;0.93;;;;;;;8.74;89.39;101729.63;4964870;28;20193;-49
2022/09/23 02:56:39;;;;;;;1.30;0.80;;;;;;;8.76;89.47;101727.81;4960200;28;20206;-48
2022/09/23 02:59:05;;;;;;;2.30;1.00;;;;;;;8.75;89.65;101732.28;4961927;28;20760;-48
2022/09/23 03:01:59;;;;;;;1.52;0.85;;;;;;;8.75;89.35;101720.72;4959514;28;20645;-49
2022/09/23 03:04:34;;;;;;;1.30;1.20;;;;;;;8.73;89.37;101722.53;4970724;28;20217;-48
2022/09/23 03:07:07;;;;;;;1.33;1.20;;;;;;;8.74;89.31;101721.59;4968413;28;20881;-49
2022/09/23 03:09:38;;;;;;;1.35;1.10;;;;;;;8.77;89.11;101714.44;4966502;28;20728;-50
2022/09/23 03:12:39;;;;;;;1.30;1.08;;;;;;;8.80;88.74;101725.06;4961820;28;20195;-50
2022/09/23 03:15:14;;;;;;;2.33;1.30;;;;;;;8.81;88.85;101712.56;4961643;28;20287;-48
2022/09/23 03:18:02;;;;;;;1.83;1.13;;;;;;;8.89;88.58;101713.34;4971799;28;20186;-49
2022/09/23 03:20:35;;;;;;;1.48;1.00;;;;;;;8.89;88.57;101710.66;4961936;28;20222;-50
2022/09/23 03:23:06;;;;;;;1.10;1.10;;;;;;;8.91;88.34;101702.63;4965505;28;20201;-48
2022/09/23 03:25:36;;;;;;;1.00;1.00;;;;;;;8.88;88.43;101703.56;4968093;28;20174;-48
2022/09/23 03:28:03;;;;;;;1.35;1.17;;;;;;;8.92;88.28;101694.59;4972712;28;20281;-49
2022/09/23 03:30:31;;;;;;;1.33;1.10;;;;;;;8.98;88.11;101701.59;4971226;28;20289;-49
2022/09/23 03:32:59;;;;;;;1.15;1.05;;;;;;;9.01;87.97;101691.75;4970100;28;20187;-49
2022/09/23 03:35:28;;;;;;;3.08;1.00;;;;;;;9.00;87.82;101681.06;4969754;28;20272;-48
2022/09/23 03:38:08;;;;;;;2.17;1.20;;;;;;;9.02;88.08;101685.47;4967606;28;20240;-49
2022/09/23 03:40:41;;;;;;;2.05;1.23;;;;;;;9.04;87.71;101683.66;4971852;28;20767;-50
2022/09/23 03:43:08;;;;;;;1.20;1.10;;;;;;;9.06;87.75;101678.28;4969952;28;20246;-49
2022/09/23 03:45:35;;;;;;;2.92;1.00;;;;;;;9.12;87.41;101678.19;4965941;28;20249;-50
2022/09/23 03:48:01;;;;;;;1.73;1.30;;;;;;;9.17;87.14;101672.75;4965104;28;20634;-48
2022/09/23 03:50:27;;;;;;;1.20;1.10;;;;;;;9.16;87.07;101662.94;4969066;28;20215;-49
2022/09/23 03:52:52;;;;;;;1.52;0.90;;;;;;;9.21;86.84;101683.34;4971924;28;20177;-50
2022/09/23 03:55:19;;;;;;;2.25;1.13;;;;;;;9.17;86.80;101670.94;4969631;28;20209;-48
2022/09/23 03:57:45;;;;;;;2.92;1.10;;;;;;;9.20;87.10;101672.69;4966065;28;20598;-49
2022/09/23 04:00:12;;;;;;;1.75;1.15;;;;;;;9.21;87.10;101661.97;4963914;28;20210;-48
2022/09/23 04:02:38;;;;;;;1.20;1.08;;;;;;;9.22;86.94;101658.38;4963276;28;21059;-48
2022/09/23 04:05:04;;;;;;;1.85;1.23;;;;;;;9.26;86.36;101665.41;4962674;28;20194;-48
2022/09/23 04:07:30;;;;;;;3.42;0.98;;;;;;;9.24;86.64;101656.53;4968750;28;20221;-48
2022/09/23 04:09:55;;;;;;;1.52;1.10;;;;;;;9.25;86.59;101660.13;4967106;28;20237;-49
2022/09/23 04:12:20;;;;;;;1.85;1.20;;;;;;;9.25;86.46;101665.47;4963335;28;20197;-50
2022/09/23 04:14:47;;;;;;;1.17;1.00;;;;;;;9.26;86.71;101664.53;4959916;28;20217;-50
2022/09/23 04:17:12;;;;;;;1.40;1.23;;;;;;;9.25;86.50;101661.00;4962119;28;20552;-48
2022/09/23 04:19:38;;;;;;;1.30;1.30;;;;;;;9.26;86.74;101652.06;4969915;28;20289;-50
2022/09/23 04:22:03;;;;;;;1.33;1.23;;;;;;;9.25;86.56;101644.09;4967147;28;20269;-49
2022/09/23 04:24:29;;;;;;;2.55;1.10;;;;;;;9.20;86.85;101649.50;4966261;28;20628;-50
2022/09/23 04:26:55;;;;;;;3.42;1.52;;;;;;;9.16;86.99;101637.13;4959281;28;20222;-51
2022/09/23 04:29:22;;;;;;;1.48;1.38;;;;;;;9.16;87.30;101639.78;4956460;28;20617;-50
2022/09/23 04:31:49;;;;;;;2.05;1.20;;;;;;;9.16;86.77;101641.56;4970421;28;20197;-50
2022/09/23 04:34:16;;;;;;;1.13;1.00;;;;;;;9.15;87.07;101643.38;4964814;28;20657;-49
2022/09/23 04:36:43;;;;;;;1.42;1.10;;;;;;;9.18;87.00;101642.41;4964014;28;20583;-48
2022/09/23 04:39:09;;;;;;;1.50;1.08;;;;;;;9.14;87.07;101635.38;4960492;28;20210;-48
2022/09/23 04:41:35;;;;;;;1.20;1.10;;;;;;;9.14;87.32;101635.38;4958348;28;20248;-48
2022/09/23 04:44:01;;;;;;;1.55;1.25;;;;;;;9.12;87.50;101631.84;4957247;28;20289;-48
2022/09/23 04:46:26;;;;;;;1.52;1.00;;;;;;;9.12;87.77;101626.50;4957480;28;20182;-50
2022/09/23 04:48:52;;;;;;;2.25;1.42;;;;;;;9.12;87.63;101627.41;4961298;28;20708;-49
2022/09/23 04:51:20;;;;;;;1.17;1.02;;;;;;;9.13;87.86;101625.59;4962184;28;20237;-48
2022/09/23 04:53:48;;;;;;;1.27;1.00;;;;;;;9.11;87.95;101627.41;4966572;28;20186;-46
2022/09/23 04:56:19;;;;;;;1.30;1.20;;;;;;;9.16;87.56;101621.09;4970902;28;20217;-48
2022/09/23 04:58:45;;;;;;;2.97;1.40;;;;;;;9.12;87.66;101631.84;4968736;28;20715;-49
2022/09/23 05:01:13;;;;;;;1.33;1.23;;;;;;;9.12;87.75;101629.16;4960003;28;20182;-50
2022/09/23 05:03:39;;;;;;;1.20;1.10;;;;;;;9.11;87.77;101625.63;4963173;28;20477;-49
2022/09/23 05:06:06;;;;;;;3.00;1.42;;;;;;;9.13;87.66;101626.47;4968242;28;20201;-52
2022/09/23 05:08:32;;;;;;;1.35;1.20;;;;;;;9.15;87.79;101627.31;4963745;28;20304;-47
2022/09/23 05:10:59;;;;;;;2.28;1.38;;;;;;;9.13;87.41;101614.91;4966464;28;20193;-46
2022/09/23 05:13:25;;;;;;;4.07;1.30;;;;;;;9.09;87.50;101630.09;4970209;28;20284;-53
2022/09/23 05:16:05;;;;;;;1.95;1.55;;;;;;;9.10;87.72;101625.66;4962961;28;20265;-46
2022/09/23 05:18:32;;;;;;;1.85;1.20;;;;;;;9.16;87.47;101637.13;4975983;28;20280;-48
2022/09/23 05:20:58;;;;;;;2.55;1.55;;;;;;;9.14;87.61;101619.31;4970207;28;20186;-52
2022/09/23 05:23:24;;;;;;;1.92;1.40;;;;;;;9.16;87.72;101630.88;4964009;28;20201;-48
2022/09/23 05:26:05;;;;;;;2.65;1.30;;;;;;;9.11;87.88;101630.09;4962663;28;20701;-53
2022/09/23 05:28:31;;;;;;;1.45;1.23;;;;;;;9.08;87.77;101623.88;4965091;28;20244;-51
2022/09/23 05:31:07;;;;;;;4.35;1.23;;;;;;;9.13;87.89;101617.56;4962982;28;20624;-53
2022/09/23 05:33:35;;;;;;;1.73;1.42;;;;;;;9.11;87.76;101627.41;4964349;28;20201;-50
2022/09/23 05:36:01;;;;;;;1.90;1.33;;;;;;;9.14;87.83;101617.56;4964959;28;20210;-50
2022/09/23 05:38:28;;;;;;;1.35;1.27;;;;;;;9.15;87.56;101616.63;4960403;28;20183;-48
2022/09/23 05:41:01;;;;;;;1.67;1.40;;;;;;;9.12;87.63;101615.78;4962839;28;20221;-48
2022/09/23 05:43:27;;;;;;;2.08;1.40;;;;;;;9.08;88.01;101615.00;4958966;28;20674;-49
2022/09/23 05:46:06;;;;;;;1.60;1.50;;;;;;;9.06;88.14;101620.38;4963967;28;20182;-47
2022/09/23 05:48:34;;;;;;;1.98;1.38;;;;;;;9.09;88.53;101619.41;4967455;28;20300;-49
2022/09/23 05:51:00;;;;;;;1.30;1.20;;;;;;;9.08;88.39;101615.88;4961951;28;20200;-48
2022/09/23 05:53:26;;;;;;;3.00;1.52;;;;;;;9.18;88.14;101624.59;4960507;28;20186;-48
2022/09/23 05:55:53;;;;;;;3.72;1.48;;;;;;;9.21;88.20;101619.19;4959882;28;20206;-48
2022/09/23 05:58:19;;;;;;;3.08;1.60;;;;;;;9.13;88.18;101617.56;4984895;28;20182;-47
2022/09/23 06:00:45;;;;;;;2.33;1.55;;;;;;;9.19;88.35;101622.81;4963651;28;20186;-49
2022/09/23 06:03:12;;;;;;;5.50;1.60;;;;;;;9.27;88.49;101629.75;4966143;28;20211;-48
2022/09/23 06:05:38;;;;;;;1.73;1.33;;;;;;;9.28;88.09;101622.63;4961048;28;20224;-48
2022/09/23 06:08:04;;;;;;;2.40;1.30;;;;;;;9.31;88.00;101619.00;4957001;28;20189;-47
2022/09/23 06:10:30;;;;;;;3.00;1.30;;;;;;;9.39;87.83;101628.63;4968785;28;20285;-51
2022/09/23 06:12:55;;;;;;;3.20;1.48;;;;;;;9.33;87.80;101618.03;4969165;28;20661;-50
2022/09/23 06:15:21;;;;;;;2.47;1.70;;;;;;;9.49;87.42;101608.81;4967158;28;20190;-54
2022/09/23 06:17:49;;;;;;;6.10;1.70;;;;;;;9.42;87.13;101611.63;4961247;28;20186;-50
2022/09/23 06:20:15;;;;;;;2.72;1.50;;;;;;;9.44;87.22;101616.03;4968649;28;20314;-51
2022/09/23 06:22:40;;;;;;;5.18;2.03;;;;;;;9.42;87.39;101608.94;4967364;28;20182;-50
2022/09/23 06:25:06;;;;;;;3.58;1.60;;;;;;;9.46;87.46;101606.19;4965179;28;20279;-52
2022/09/23 06:27:31;;;;;;;3.05;1.65;;;;;;;9.41;87.20;101616.09;4981551;28;20232;-49
2022/09/23 06:29:57;;;;;;;3.75;1.52;;;;;;;9.46;87.61;101616.88;4965753;28;20268;-48
2022/09/23 06:32:22;;;;;;;3.75;1.50;;;;;;;9.40;87.34;101616.13;4964345;28;20201;-53
2022/09/23 06:34:48;;;;;;;3.22;1.50;;;;;;;9.42;87.72;101623.22;4964145;28;20568;-48
2022/09/23 06:37:13;;;;;;;2.13;1.40;;;;;;;9.46;87.70;101608.84;4964613;28;20214;-49
2022/09/23 06:39:38;;;;;;;1.70;1.58;;;;;;;9.36;87.53;101606.41;4965340;28;20202;-48
2022/09/23 06:42:05;;;;;;;3.17;1.52;;;;;;;9.28;87.68;101617.28;4963106;28;20272;-48
2022/09/23 06:44:31;;;;;;;3.85;1.33;;;;;;;9.39;88.05;101607.22;4967131;28;20197;-48
2022/09/23 06:46:57;;;;;;;4.05;1.55;;;;;;;9.38;88.13;101616.19;4960697;28;20200;-49
2022/09/23 06:49:22;;;;;;;2.13;1.45;;;;;;;9.32;88.10;101610.94;4964412;28;20238;-48
2022/09/23 06:51:48;;;;;;;2.60;1.40;;;;;;;9.46;88.01;101611.53;4964371;28;20190;-49
2022/09/23 06:54:13;;;;;;;1.67;1.30;;;;;;;9.36;87.80;101618.00;4960147;28;20685;-50
2022/09/23 06:56:39;;;;;;;2.05;1.42;;;;;;;9.39;87.77;101622.41;4958140;28;20201;-48
2022/09/23 06:59:05;;;;;;;3.42;1.52;;;;;;;9.49;87.60;101622.19;4957673;28;20304;-49
2022/09/23 07:01:31;;;;;;;3.75;1.70;;;;;;;9.56;87.18;101628.28;4961554;28;20629;-47
2022/09/23 07:03:56;;;;;;;3.03;1.38;;;;;;;9.78;86.80;101627.81;4981407;28;20253;-48
2022/09/23 07:06:22;;;;;;;3.45;1.20;;;;;;;9.83;86.54;101634.81;4963083;28;20183;-49
2022/09/23 07:08:47;;;;;;;3.08;1.63;;;;;;;10.16;85.84;101626.06;4959363;28;20777;-51
2022/09/23 07:11:14;;;;;;;1.48;1.38;;;;;;;10.33;85.27;101628.38;4956428;28;20252;-50
2022/09/23 07:13:41;;;;;;;1.58;1.23;;;;;;;10.41;84.53;101618.34;4956977;28;20193;-51
2022/09/23 07:16:07;;;;;;;1.80;1.50;;;;;;;10.56;83.97;101630.47;4967027;28;20237;-49
2022/09/23 07:18:35;;;;;;;1.90;1.30;;;;;;;10.52;83.53;101630.53;4960436;28;20209;-50
2022/09/23 07:21:09;;;;;;;2.00;1.40;;;;;;;10.67;83.29;101634.66;4959962;28;20229;-49
2022/09/23 07:23:36;;;;;;;3.15;1.52;;;;;;;10.75;83.11;101633.56;4956597;28;20229;-52
2022/09/23 07:26:02;;;;;;;1.50;1.40;;;;;;;10.79;83.02;101632.56;4955239;28;20178;-47
2022/09/23 07:28:28;;;;;;;2.03;1.77;;;;;;;10.98;82.56;101624.91;4968018;28;20194;-48
2022/09/23 07:30:55;;;;;;;3.38;2.22;;;;;;;11.39;81.94;101625.53;4964063;28;20195;-48
2022/09/23 07:33:20;;;;;;;3.25;1.70;;;;;;;11.44;81.16;101627.19;4959501;28;20523;-48
2022/09/23 07:35:45;;;;;;;4.70;1.60;;;;;;;11.43;80.71;101633.44;4968364;28;20202;-48
2022/09/23 07:38:11;;;;;;;2.40;1.65;;;;;;;11.74;79.40;101620.03;4983995;28;20190;-49
2022/09/23 07:40:38;;;;;;;2.90;1.55;;;;;;;11.98;78.34;101613.97;4965339;28;20213;-50
2022/09/23 07:43:06;;;;;;;3.45;1.50;;;;;;;11.88;77.86;101622.31;4980463;28;20201;-50
2022/09/23 07:45:34;;;;;;;3.58;1.50;;;;;;;12.01;78.07;101632.69;4970687;28;20182;-50
2022/09/23 07:48:00;;;;;;;3.38;2.00;;;;;;;12.18;77.99;101622.28;4970958;28;20186;-48
2022/09/23 07:50:27;;;;;;;3.65;1.55;;;;;;;12.45;77.25;101614.22;4968738;28;20218;-51
2022/09/23 07:52:52;;;;;;;4.20;1.40;;;;;;;12.78;76.36;101610.38;4968017;28;20198;-48
2022/09/23 07:55:18;;;;;;;3.15;1.42;;;;;;;12.33;75.61;101612.81;4967296;28;20185;-49
2022/09/23 07:57:44;;;;;;;2.67;1.40;;;;;;;12.62;75.62;101606.47;4967929;28;20196;-50
2022/09/23 08:00:12;;;;;;;1.90;1.65;;;;;;;12.93;75.41;101608.09;4967007;28;20206;-51
2022/09/23 08:02:37;;;;;;;6.60;1.42;;;;;;;12.99;74.79;101608.75;4966488;28;20189;-52
2022/09/23 08:05:04;;;;;;;2.83;1.73;;;;;;;12.91;74.96;101601.88;4966766;28;20205;-47
2022/09/23 08:07:33;;;;;;;4.13;1.83;;;;;;;12.86;74.65;101601.19;4968269;28;20231;-51
2022/09/23 08:09:59;;;;;;;4.15;1.33;;;;;;;13.09;74.29;101608.41;4965074;28;20207;-49
2022/09/23 08:12:25;;;;;;;9.07;1.67;;;;;;;13.22;74.42;101601.66;4970656;28;20228;-48
2022/09/23 08:14:51;;;;;;;1.58;1.45;;;;;;;13.05;74.36;101596.88;4969360;28;20186;-50
2022/09/23 08:17:16;;;;;;;4.82;1.80;;;;;;;12.99;74.59;101597.13;4970688;28;20262;-50
2022/09/23 08:19:42;;;;;;;3.53;1.30;;;;;;;13.26;74.47;101595.22;4967034;28;20219;-50
2022/09/23 08:22:07;;;;;;;1.65;1.48;;;;;;;13.43;73.65;101594.63;4965015;28;20202;-47
2022/09/23 08:24:33;;;;;;;2.05;1.30;;;;;;;13.60;73.33;101600.25;4961351;28;20301;-47
2022/09/23 08:26:58;;;;;;;2.03;1.40;;;;;;;13.31;73.23;101590.56;4960848;28;20677;-49
2022/09/23 08:29:25;;;;;;;2.45;1.27;;;;;;;13.54;73.61;101594.22;4961431;28;20209;-48
2022/09/23 08:31:51;;;;;;;2.00;1.48;;;;;;;13.73;73.71;101602.44;4969438;28;20214;-49
2022/09/23 08:34:18;;;;;;;4.25;1.85;;;;;;;13.58;73.34;101593.19;4965242;28;20187;-49
2022/09/23 08:36:44;;;;;;;2.13;1.65;;;;;;;13.64;72.92;101600.13;4961376;28;20657;-50
2022/09/23 08:39:14;;;;;;;2.67;1.60;;;;;;;13.72;72.70;101585.41;4957852;28;20206;-51
2022/09/23 08:41:57;;;;;;;2.13;1.30;;;;;;;13.72;72.44;101581.84;4957937;28;20666;-51
2022/09/23 08:44:31;;;;;;;1.67;1.42;;;;;;;13.65;72.83;101581.22;4968477;28;20193;-51
2022/09/23 08:47:34;;;;;;;2.17;1.40;;;;;;;13.63;73.34;101575.00;4979511;28;20195;-49
2022/09/23 08:50:20;;;;;;;3.25;1.50;;;;;;;14.14;72.88;101581.94;4949275;28;20226;-50
2022/09/23 08:52:57;;;;;;;1.40;1.30;;;;;;;14.28;72.18;101575.09;4957370;28;20182;-51
2022/09/23 08:55:33;;;;;;;2.35;1.40;;;;;;;14.38;71.24;101569.25;4962058;28;20828;-51
2022/09/23 08:58:40;;;;;;;8.50;1.90;;;;;;;14.54;71.27;101568.59;4964111;28;20201;-49
2022/09/23 09:01:36;;;;;;;4.43;1.67;;;;;;;14.60;70.61;101579.16;4911576;29;20332;-49
2022/09/23 09:04:29;;;;;;;2.08;1.88;;;;;;;14.17;70.17;101559.41;4910630;29;20200;-51
2022/09/23 09:07:05;;;;;;;4.30;1.75;;;;;;;14.08;70.87;101557.97;4963556;28;20216;-49
2022/09/23 09:09:49;;;;;;;3.75;2.65;;;;;;;14.09;72.04;101561.53;4956278;28;20246;-49
2022/09/23 09:12:21;;;;;;;3.45;1.95;;;;;;;14.48;72.20;101560.78;4962824;28;20241;-49
2022/09/23 09:15:01;;;;;;;2.25;1.83;;;;;;;14.84;71.41;101558.31;4963971;28;20197;-49
2022/09/23 09:17:26;;;;;;;1.60;1.42;;;;;;;15.20;70.94;101546.81;4967133;28;20206;-49
2022/09/23 09:19:55;;;;;;;3.40;1.52;;;;;;;15.13;71.27;101543.53;4970593;28;20210;-50
2022/09/23 09:22:48;;;;;;;2.67;1.70;;;;;;;14.96;70.46;101552.38;4967681;28;20190;-50
2022/09/23 09:25:31;;;;;;;3.10;1.60;;;;;;;14.91;70.73;101549.03;4980278;28;20285;-49
2022/09/23 09:27:58;;;;;;;2.63;1.48;;;;;;;14.62;72.16;101547.59;4964711;28;20186;-49
2022/09/23 09:30:24;;;;;;;3.95;2.10;;;;;;;14.57;71.83;101546.94;4966188;28;20217;-47
2022/09/23 09:33:00;;;;;;;3.28;1.63;;;;;;;14.89;71.37;101545.53;4965610;28;20627;-49
2022/09/23 09:36:07;;;;;;;2.60;2.03;;;;;;;15.33;71.14;101536.34;4964434;28;20240;-48
2022/09/23 09:38:35;;;;;;;2.35;1.52;;;;;;;15.28;70.24;101536.53;4960746;28;20253;-47
2022/09/23 09:41:12;;;;;;;4.93;1.80;;;;;;;14.97;70.86;101535.25;4961656;28;20257;-48
2022/09/23 09:43:40;;;;;;;5.03;1.55;;;;;;;15.21;71.29;101537.78;4966441;28;20194;-51
2022/09/23 09:46:49;;;;;;;5.60;1.88;;;;;;;15.72;69.86;101527.28;4969829;28;20817;-47
2022/09/23 09:49:41;;;;;;;2.17;1.40;;;;;;;16.24;68.75;101527.41;4962256;28;20225;-49
2022/09/23 09:52:23;;;;;;;4.20;1.88;;;;;;;15.44;67.89;101534.88;4955739;28;20237;-47
2022/09/23 09:54:49;;;;;;;2.47;1.75;;;;;;;15.59;68.69;101522.47;4967290;28;20196;-49
2022/09/23 09:57:35;;;;;;;2.58;1.70;;;;;;;15.37;69.35;101519.91;4970150;28;20276;-49
2022/09/23 10:00:21;;;;;;;1.73;1.30;;;;;;;16.00;69.94;101514.16;4966623;28;20260;-46
2022/09/23 10:03:00;;;;;;;3.33;1.42;;;;;;;15.91;69.41;101513.75;4952506;28;20244;-48
2022/09/23 10:05:31;;;;;;;2.53;1.80;;;;;;;15.73;68.33;101500.22;4960577;28;20191;-51
2022/09/23 10:08:25;;;;;;;3.78;1.70;;;;;;;15.66;68.94;101507.72;4955397;28;20190;-51
2022/09/23 10:10:57;;;;;;;3.78;1.42;;;;;;;15.94;68.12;101486.56;4968393;28;20182;-49
2022/09/23 10:13:23;;;;;;;4.30;1.80;;;;;;;16.02;67.99;101487.94;4964199;28;20665;-47
2022/09/23 10:15:53;;;;;;;3.47;1.77;;;;;;;16.44;67.11;101492.13;4961477;28;20214;-48
2022/09/23 10:18:48;;;;;;;1.80;1.52;;;;;;;16.52;66.72;101490.84;4962272;28;20856;-48
2022/09/23 10:21:19;;;;;;;3.17;1.55;;;;;;;16.28;66.23;101501.97;4959242;28;20190;-48
2022/09/23 10:23:51;;;;;;;5.63;1.77;;;;;;;16.33;66.95;101489.06;4964875;28;20328;-48
2022/09/23 10:26:26;;;;;;;3.42;1.80;;;;;;;16.03;67.86;101496.94;4956458;28;20209;-49
2022/09/23 10:28:54;;;;;;;2.63;1.98;;;;;;;16.08;67.22;101500.28;4960835;28;20210;-52
2022/09/23 10:31:34;;;;;;;2.97;1.58;;;;;;;16.32;66.89;101491.88;4961864;28;20191;-50
2022/09/23 10:34:23;;;;;;;2.63;1.55;;;;;;;16.86;65.65;101484.53;4967233;28;20321;-49
2022/09/23 10:37:08;;;;;;;2.95;1.70;;;;;;;17.05;65.17;101489.81;4962374;28;20213;-47
2022/09/23 10:48:35;;;;;;;3.75;1.50;;;;;;;16.93;63.85;101469.72;4964071;28;20676;-47
2022/09/23 10:51:06;;;;;;;2.63;1.50;;;;;;;16.98;64.62;101472.16;4969207;28;20221;-51
2022/09/23 10:54:02;;;;;;;3.08;1.40;;;;;;;16.94;65.19;101466.03;4959912;28;20218;-46
2022/09/23 10:56:38;;;;;;;4.97;1.60;;;;;;;16.44;65.95;101469.59;4964816;28;20235;-48
2022/09/23 10:59:26;;;;;;;3.00;1.55;;;;;;;16.42;65.77;101471.50;4965000;28;20205;-47
2022/09/23 11:02:14;;;;;;;2.42;1.30;;;;;;;16.40;66.62;101477.00;4966416;28;20726;-49
2022/09/23 11:05:02;;;;;;;2.42;1.40;;;;;;;16.30;66.44;101472.16;4963417;28;20189;-47
2022/09/23 11:07:34;;;;;;;3.17;1.50;;;;;;;16.81;67.15;101456.81;4962365;28;20185;-49
2022/09/23 11:10:21;;;;;;;1.90;1.48;;;;;;;16.84;65.41;101465.66;4966096;28;20577;-48
2022/09/23 11:13:01;;;;;;;2.50;1.58;;;;;;;16.83;66.03;101463.03;4968836;28;20217;-49
2022/09/23 11:16:20;;;;;;;5.22;1.67;;;;;;;16.76;65.95;101451.63;4964273;28;20300;-50
2022/09/23 11:19:21;;;;;;;2.30;1.38;;;;;;;16.78;65.52;101465.97;4922706;29;20290;-48
2022/09/23 11:22:08;;;;;;;4.13;1.30;;;;;;;16.72;65.46;101452.75;4919750;29;20250;-48
2022/09/23 11:24:49;;;;;;;1.73;1.42;;;;;;;16.87;65.71;101456.50;4965941;28;20373;-47
2022/09/23 11:27:40;;;;;;;4.45;1.38;;;;;;;16.92;65.65;101450.84;4985713;28;20189;-47
2022/09/23 11:30:15;;;;;;;3.60;1.65;;;;;;;17.04;66.12;101447.47;4981550;28;20265;-48
2022/09/23 11:32:50;;;;;;;3.28;1.30;;;;;;;17.02;66.29;101454.78;4964742;28;20192;-48
2022/09/23 11:35:51;;;;;;;2.92;1.45;;;;;;;16.84;65.80;101440.44;4959101;28;20198;-47
2022/09/23 11:38:24;;;;;;;3.75;1.60;;;;;;;16.78;66.18;101438.03;4939310;28;20209;-48
2022/09/23 11:41:12;;;;;;;1.80;1.40;;;;;;;17.15;65.42;101426.06;4971217;28;20206;-49
2022/09/23 11:43:41;;;;;;;2.47;1.25;;;;;;;17.08;65.63;101432.78;4963537;28;20187;-47
2022/09/23 11:46:34;;;;;;;3.13;1.60;;;;;;;16.77;64.39;101429.03;4963530;28;20178;-51
2022/09/23 11:49:26;;;;;;;2.85;1.63;;;;;;;17.10;65.28;101430.88;4962760;28;20671;-48
2022/09/23 11:52:19;;;;;;;4.38;1.30;;;;;;;17.34;64.69;101433.13;4956578;28;20194;-49
2022/09/23 11:54:54;;;;;;;5.72;1.60;;;;;;;17.43;64.28;101435.34;4969688;28;20641;-48
2022/09/23 11:57:31;;;;;;;2.03;1.60;;;;;;;17.09;64.99;101418.28;4971313;28;20221;-47
2022/09/23 12:00:01;;;;;;;3.53;1.40;;;;;;;16.85;65.70;101428.66;4968390;28;20260;-47
2022/09/23 12:02:51;;;;;;;4.18;1.88;;;;;;;16.81;65.57;101419.81;4966848;28;20261;-47
2022/09/23 12:05:23;;;;;;;2.58;1.50;;;;;;;17.08;65.66;101427.38;4967465;28;20337;-46